»·PEaware :: N13M KSNA-KSNA

N13M :: KSNA-KSNA

FLIGHT INFORMATION

Flight Status: Arrived
Operator: Privately registered:
United States
More flights under this callsign
Pilot: Zhuojun Y. (28503)
Aircraft: SOCATA TBM-900
(TBM9)
More flights by this aircraft type
Origin: KSNA John Wayne-Orange Co
United States
Destination: KSNA John Wayne-Orange Co
United States
More flights between these airports :: More routes between these airports
Route: +SLI
File this flight plan on PilotEdge
Remarks:
Altitude:
(Current/Filed)
3,000ft
Speed:
(Current/Filed)
150kts
Departed: 28-Mar-20 09:38 PM
Arrived: 28-Mar-20 10:09 PM
Distance/Time
Traveled:
0nm/0:31
Distance/Time
To Go:
Arrived

Flight Plot

Page will automatically refresh every two minutes.


Map Options




Map Legend


Flown Route
Filed Route
Departure Airport
Arrival Airport
Navaid (VOR, NDB)
Fix

Horizontal Profiles

Position Reports

Time Latitude Longitude Heading Altitude Ground
Speed
28-Mar-20 21:24 33.676502 -117.870435 28 59ft 0kts
28-Mar-20 21:25 33.676502 -117.870435 28 59ft 0kts
28-Mar-20 21:26 33.676502 -117.870435 28 59ft 0kts
28-Mar-20 21:27 33.676502 -117.870435 28 59ft 0kts
28-Mar-20 21:28 33.676502 -117.870435 28 59ft 0kts
28-Mar-20 21:29 33.676502 -117.870435 28 59ft 0kts
28-Mar-20 21:30 33.676502 -117.870435 28 59ft 0kts
28-Mar-20 21:31 33.676623 -117.869971 76 59ft 6kts
28-Mar-20 21:32 33.678398 -117.868609 27 59ft 11kts
28-Mar-20 21:33 33.681026 -117.867112 33 59ft 9kts
28-Mar-20 21:34 33.681222 -117.866614 97 59ft 0kts
28-Mar-20 21:35 33.681222 -117.866614 97 59ft 0kts
28-Mar-20 21:36 33.681127 -117.866231 112 59ft 5kts
28-Mar-20 21:37 33.677141 -117.867919 207 59ft 72kts
28-Mar-20 21:38 33.650991 -117.890568 230 910ft 182kts
28-Mar-20 21:39 33.620505 -117.939556 247 1756ft 209kts
28-Mar-20 21:40 33.637555 -117.990889 340 2459ft 182kts
28-Mar-20 21:41 33.676196 -118.006326 342 2821ft 168kts
28-Mar-20 21:42 33.706330 -118.018120 341 2819ft 138kts
28-Mar-20 21:44 33.729498 -118.016413 58 2822ft 123kts
28-Mar-20 21:45 33.725148 -117.989888 119 2828ft 115kts
28-Mar-20 21:46 33.724501 -117.965705 28 2829ft 104kts
28-Mar-20 21:47 33.744636 -117.955719 21 2849ft 111kts
28-Mar-20 21:48 33.768414 -117.944441 21 2873ft 155kts
28-Mar-20 21:49 33.798998 -117.929768 21 2837ft 161kts
28-Mar-20 21:50 33.829082 -117.915314 21 2828ft 150kts
28-Mar-20 21:51 33.858226 -117.901308 21 2833ft 146kts
28-Mar-20 21:52 33.887457 -117.887249 21 2831ft 139kts
28-Mar-20 21:53 33.916924 -117.873076 21 2860ft 123kts
28-Mar-20 21:54 33.940747 -117.857065 66 2827ft 127kts
28-Mar-20 21:55 33.950621 -117.821138 71 2834ft 126kts
28-Mar-20 21:56 33.949587 -117.785270 111 2836ft 125kts
28-Mar-20 21:57 33.937841 -117.749939 111 2835ft 125kts
28-Mar-20 21:58 33.920224 -117.721013 175 2831ft 125kts
28-Mar-20 21:59 33.892249 -117.730512 218 2838ft 125kts
28-Mar-20 22:00 33.867813 -117.747058 208 2835ft 125kts
28-Mar-20 22:01 33.843172 -117.762745 207 2835ft 126kts
28-Mar-20 22:02 33.819826 -117.777530 207 2835ft 126kts
28-Mar-20 22:02 33.801066 -117.789408 207 2705ft 133kts
28-Mar-20 22:04 33.773654 -117.806762 207 2106ft 142kts
28-Mar-20 22:05 33.749159 -117.822276 207 1572ft 143kts
28-Mar-20 22:05 33.728480 -117.835378 207 1124ft 143kts
28-Mar-20 22:07 33.701482 -117.852714 209 591ft 93kts
28-Mar-20 22:07 33.687788 -117.861296 207 245ft 79kts
28-Mar-20 22:09 33.674263 -117.869837 224 59ft 14kts
28-Mar-20 22:10 33.674985 -117.871094 312 59ft 4kts
28-Mar-20 22:10 33.675653 -117.871289 27 59ft 0kts
28-Mar-20 22:12 33.675653 -117.871289 27 59ft 0kts
28-Mar-20 22:12 33.675653 -117.871289 27 59ft 0kts
28-Mar-20 22:13 33.675653 -117.871289 27 59ft 0kts
28-Mar-20 22:15 33.675653 -117.871289 27 59ft 0kts
28-Mar-20 22:15 33.697658 -117.855179 207 486ft 87kts
28-Mar-20 22:16 33.683986 -117.863665 209 157ft 80kts
28-Mar-20 22:17 33.675653 -117.871289 27 59ft 0kts

Navigation Log

Ident Type
Flight plan parsing failed, navigation log unavailable